createdAt,value
2022-11-15T00:01:15.240Z,74.20
2022-11-15T00:04:00.688Z,74.20
2022-11-15T00:06:46.340Z,74.40
2022-11-15T00:09:31.635Z,74.50
2022-11-15T00:12:17.172Z,74.70
2022-11-15T00:15:02.715Z,74.90
2022-11-15T00:17:51.612Z,75.10
2022-11-15T00:20:37.141Z,75.40
2022-11-15T00:23:22.853Z,75.50
2022-11-15T00:26:11.462Z,75.60
2022-11-15T00:28:57.045Z,75.70
2022-11-15T00:31:42.463Z,75.90
2022-11-15T00:34:27.996Z,75.90
2022-11-15T00:37:13.372Z,76.00
2022-11-15T00:39:58.729Z,76.20
2022-11-15T00:42:44.252Z,76.30
2022-11-15T00:45:29.913Z,76.40
2022-11-15T00:48:15.060Z,76.50
2022-11-15T00:51:00.627Z,76.60
2022-11-15T00:53:45.623Z,76.60
2022-11-15T00:56:31.030Z,76.60
2022-11-15T00:59:16.504Z,76.70
2022-11-15T01:02:02.255Z,76.70
2022-11-15T01:04:47.614Z,76.50
2022-11-15T01:07:33.087Z,76.60
2022-11-15T01:10:19.231Z,76.50
2022-11-15T01:13:04.344Z,76.50
2022-11-15T01:15:49.767Z,76.50
2022-11-15T01:18:35.163Z,76.50
2022-11-15T01:21:20.639Z,76.60
2022-11-15T01:24:06.157Z,76.70
2022-11-15T01:26:51.587Z,76.70
2022-11-15T01:29:36.838Z,76.50
2022-11-15T01:32:22.166Z,76.30
2022-11-15T01:35:08.055Z,76.30
2022-11-15T01:37:53.361Z,76.20
2022-11-15T01:40:38.648Z,76.30
2022-11-15T01:43:25.453Z,76.40
2022-11-15T01:46:38.707Z,76.40
2022-11-15T01:49:25.590Z,76.50
2022-11-15T01:52:16.281Z,77.60
2022-11-15T01:55:05.010Z,76.50
2022-11-15T01:57:54.727Z,76.60
2022-11-15T02:00:40.122Z,76.70
2022-11-15T02:03:34.296Z,76.90
2022-11-15T02:06:21.002Z,77.10
2022-11-15T02:09:06.964Z,77.20
2022-11-15T02:11:55.399Z,77.20
2022-11-15T02:14:43.626Z,77.20
2022-11-15T02:17:59.160Z,77.30
2022-11-15T02:20:50.398Z,77.40
2022-11-15T02:23:57.886Z,77.50
2022-11-15T02:26:59.121Z,77.70
2022-11-15T02:30:21.984Z,77.70
2022-11-15T02:33:34.173Z,77.80
2022-11-15T02:36:39.483Z,77.80
2022-11-15T02:39:46.453Z,77.70
2022-11-15T02:42:55.291Z,77.60
2022-11-15T02:45:51.131Z,77.50
2022-11-15T02:48:37.149Z,77.60
2022-11-15T02:51:23.035Z,77.60
2022-11-15T02:54:12.644Z,77.80
2022-11-15T02:57:04.927Z,78.00
2022-11-15T03:00:12.187Z,78.00
2022-11-15T03:03:16.311Z,77.90
2022-11-15T03:06:17.688Z,77.70
2022-11-15T03:09:52.167Z,77.50
2022-11-15T03:12:56.458Z,77.30
2022-11-15T03:15:53.704Z,77.20
2022-11-15T03:18:53.094Z,77.10
2022-11-15T03:21:40.659Z,76.90
2022-11-15T03:24:27.995Z,76.80
2022-11-15T03:27:17.409Z,76.90
2022-11-15T03:30:07.307Z,76.90
2022-11-15T03:32:56.788Z,76.90
2022-11-15T03:35:45.446Z,77.00
2022-11-15T03:38:34.039Z,77.00
2022-11-15T03:41:26.657Z,77.20
2022-11-15T03:44:47.693Z,77.10
2022-11-15T03:47:37.289Z,77.10
2022-11-15T03:50:25.143Z,77.10
2022-11-15T03:53:11.131Z,77.10
2022-11-15T03:55:56.465Z,76.90
2022-11-15T03:58:41.658Z,76.90
2022-11-15T04:01:27.375Z,76.90
2022-11-15T04:04:13.196Z,76.70
2022-11-15T04:06:58.627Z,76.90
2022-11-15T04:10:02.794Z,76.60
2022-11-15T04:12:48.704Z,76.60
2022-11-15T04:15:34.312Z,76.40
2022-11-15T04:18:19.784Z,76.10
2022-11-15T04:21:24.053Z,75.90
2022-11-15T04:24:15.191Z,75.70
2022-11-15T04:27:00.427Z,75.70
2022-11-15T04:29:45.748Z,75.70
2022-11-15T04:32:31.210Z,75.80
2022-11-15T04:35:16.484Z,76.10
2022-11-15T04:38:03.849Z,76.30
2022-11-15T04:40:49.146Z,76.60
2022-11-15T04:43:34.942Z,76.60
2022-11-15T04:46:20.520Z,76.50
2022-11-15T04:49:06.002Z,76.60
2022-11-15T04:51:51.521Z,76.70
2022-11-15T04:54:36.628Z,76.70
2022-11-15T04:57:22.163Z,76.80
2022-11-15T05:00:11.395Z,76.80
2022-11-15T05:03:15.875Z,76.80
2022-11-15T05:06:02.020Z,76.80
2022-11-15T05:08:47.476Z,76.80
2022-11-15T05:11:32.898Z,76.70
2022-11-15T05:14:18.228Z,76.70
2022-11-15T05:17:03.689Z,76.60
2022-11-15T05:19:49.073Z,76.60
2022-11-15T05:22:34.585Z,76.50
2022-11-15T05:25:20.145Z,76.60
2022-11-15T05:28:05.699Z,76.60
2022-11-15T05:30:51.196Z,76.60
2022-11-15T05:33:39.267Z,76.80
2022-11-15T05:36:32.734Z,76.70
2022-11-15T05:39:18.337Z,76.80
2022-11-15T05:42:10.475Z,76.80
2022-11-15T05:44:55.795Z,76.80
2022-11-15T05:47:41.854Z,76.70
2022-11-15T05:50:27.870Z,76.60
2022-11-15T05:53:15.629Z,76.60
2022-11-15T05:56:01.177Z,76.60
2022-11-15T05:58:46.732Z,76.40
2022-11-15T06:01:32.006Z,76.50
2022-11-15T06:04:17.201Z,77.50
2022-11-15T06:07:02.853Z,76.60
2022-11-15T06:09:48.386Z,76.50
2022-11-15T06:12:33.972Z,76.50
2022-11-15T06:15:19.485Z,76.50
2022-11-15T06:18:05.054Z,76.30
2022-11-15T06:20:50.197Z,76.30
2022-11-15T06:23:36.308Z,76.30
2022-11-15T06:26:22.007Z,76.30
2022-11-15T06:29:07.561Z,76.30
2022-11-15T06:31:53.855Z,76.20
2022-11-15T06:34:39.124Z,75.90
2022-11-15T06:37:24.707Z,75.80
2022-11-15T06:40:11.196Z,75.80
2022-11-15T06:43:00.435Z,75.70
2022-11-15T06:45:45.746Z,75.80
2022-11-15T06:48:31.922Z,75.70
2022-11-15T06:51:17.081Z,75.60
2022-11-15T06:54:02.691Z,75.70
2022-11-15T06:56:48.357Z,75.60
2022-11-15T06:59:37.772Z,75.60
2022-11-15T07:02:25.929Z,75.60
2022-11-15T07:05:12.237Z,75.70
2022-11-15T07:07:58.511Z,75.70
2022-11-15T07:10:44.043Z,75.70
2022-11-15T07:13:34.301Z,75.80
2022-11-15T07:16:20.539Z,75.80
2022-11-15T07:19:09.815Z,75.80
2022-11-15T07:21:55.264Z,75.80
2022-11-15T07:24:40.706Z,75.70
2022-11-15T07:27:26.125Z,75.70
2022-11-15T07:30:15.406Z,75.50
2022-11-15T07:33:01.940Z,75.30
2022-11-15T07:35:50.569Z,75.30
2022-11-15T07:38:42.145Z,75.10
2022-11-15T07:41:28.359Z,74.80
2022-11-15T07:44:13.997Z,74.70
2022-11-15T07:46:59.190Z,74.90
2022-11-15T07:49:44.631Z,74.90
2022-11-15T07:52:29.957Z,74.90
2022-11-15T07:55:15.596Z,74.80
2022-11-15T07:58:09.665Z,74.90
2022-11-15T08:00:55.071Z,75.00
2022-11-15T08:03:40.512Z,74.90
2022-11-15T08:06:25.940Z,74.90
2022-11-15T08:09:11.417Z,75.00
2022-11-15T08:11:56.947Z,75.00
2022-11-15T08:14:42.489Z,75.20
2022-11-15T08:17:27.650Z,75.10
2022-11-15T08:20:13.273Z,75.30
2022-11-15T08:23:00.247Z,75.20
2022-11-15T08:25:45.543Z,75.10
2022-11-15T08:28:32.458Z,75.20
2022-11-15T08:31:19.243Z,75.30
2022-11-15T08:34:07.010Z,75.30
2022-11-15T08:36:52.391Z,75.40
2022-11-15T08:39:38.844Z,75.40
2022-11-15T08:42:24.325Z,75.10
2022-11-15T08:45:10.274Z,75.20
2022-11-15T08:47:56.270Z,75.10
2022-11-15T08:50:41.460Z,75.00
2022-11-15T08:53:26.812Z,74.50
2022-11-15T08:56:13.938Z,74.40
2022-11-15T08:58:59.570Z,74.70
2022-11-15T09:01:45.146Z,75.40
2022-11-15T09:04:30.942Z,75.20
2022-11-15T09:07:16.684Z,75.20
2022-11-15T09:10:02.054Z,74.30
2022-11-15T09:12:49.451Z,74.20
2022-11-15T09:15:35.138Z,73.60
2022-11-15T09:18:23.246Z,72.80
2022-11-15T09:21:09.874Z,72.70
2022-11-15T09:23:55.101Z,72.70
2022-11-15T09:26:41.484Z,72.50
2022-11-15T09:29:26.853Z,72.80
2022-11-15T09:32:12.038Z,71.30
2022-11-15T09:34:58.168Z,70.20
2022-11-15T09:37:43.730Z,69.70
2022-11-15T09:40:30.624Z,69.70
2022-11-15T09:43:38.505Z,70.20
2022-11-15T09:46:59.764Z,70.50
2022-11-15T09:50:09.689Z,69.60
2022-11-15T09:52:39.801Z,69.50
2022-11-15T09:55:09.771Z,68.80
2022-11-15T09:57:45.534Z,68.20
2022-11-15T10:00:46.055Z,68.20
2022-11-15T10:03:12.658Z,68.20
2022-11-15T10:05:45.720Z,67.80
2022-11-15T10:08:37.322Z,67.80
2022-11-15T10:14:21.375Z,68.50
2022-11-15T10:16:57.084Z,67.90
2022-11-15T10:19:53.059Z,68.10
2022-11-15T10:22:28.513Z,68.30
2022-11-15T10:25:44.998Z,68.20
2022-11-15T10:28:18.746Z,68.10
2022-11-15T10:30:54.351Z,67.90
2022-11-15T10:33:37.222Z,68.10
2022-11-15T10:36:14.596Z,68.00
2022-11-15T10:39:01.676Z,67.70
2022-11-15T10:41:28.468Z,67.50
2022-11-15T10:44:17.241Z,67.40
2022-11-15T10:47:04.353Z,67.40
2022-11-15T10:49:35.637Z,67.10
2022-11-15T10:52:23.137Z,67.50
2022-11-15T10:54:51.038Z,66.90
2022-11-15T10:57:20.323Z,66.60
2022-11-15T11:00:14.787Z,66.70
2022-11-15T11:02:58.601Z,66.10
2022-11-15T11:05:42.576Z,66.30
2022-11-15T11:08:15.895Z,65.60
2022-11-15T11:11:02.970Z,65.30
2022-11-15T11:13:40.866Z,65.60
2022-11-15T11:16:39.187Z,65.20
2022-11-15T11:19:56.656Z,65.00
2022-11-15T11:22:55.602Z,65.00
2022-11-15T11:25:36.057Z,65.00
2022-11-15T11:28:41.819Z,65.10
2022-11-15T11:31:33.302Z,64.90
2022-11-15T11:34:21.177Z,65.20
2022-11-15T11:37:15.197Z,65.40
2022-11-15T11:40:11.202Z,64.90
2022-11-15T11:42:44.014Z,64.50
2022-11-15T11:45:26.125Z,64.80
2022-11-15T11:48:05.126Z,64.40
2022-11-15T11:50:33.322Z,64.30
2022-11-15T11:53:12.165Z,63.80
2022-11-15T11:55:48.633Z,63.90
2022-11-15T11:58:24.248Z,63.60
2022-11-15T12:00:56.535Z,64.00
2022-11-15T12:03:43.116Z,63.60
2022-11-15T12:06:15.994Z,63.30
2022-11-15T12:08:47.332Z,64.10
2022-11-15T12:11:17.051Z,62.80
2022-11-15T12:13:45.648Z,63.00
2022-11-15T12:16:28.489Z,62.80
2022-11-15T12:18:57.648Z,63.10
2022-11-15T12:21:43.068Z,62.70
2022-11-15T12:24:24.808Z,62.80
2022-11-15T12:27:14.915Z,62.60
2022-11-15T12:29:53.808Z,61.80
2022-11-15T12:32:36.047Z,62.20
2022-11-15T12:35:06.674Z,62.20
2022-11-15T12:37:56.337Z,61.60
2022-11-15T12:40:35.703Z,61.30
2022-11-15T12:43:05.741Z,61.10
2022-11-15T12:45:39.490Z,61.20
2022-11-15T12:48:18.482Z,61.00
2022-11-15T12:50:59.072Z,61.20
2022-11-15T12:53:25.943Z,60.90
2022-11-15T12:56:13.966Z,60.80
2022-11-15T12:58:44.693Z,60.60
2022-11-15T13:01:32.151Z,60.20
2022-11-15T13:04:14.980Z,60.40
2022-11-15T13:06:49.370Z,60.80
2022-11-15T13:09:37.182Z,60.80
2022-11-15T13:12:28.247Z,60.80
2022-11-15T13:15:22.925Z,60.90
2022-11-15T13:17:54.563Z,61.20
2022-11-15T13:20:26.954Z,61.50
2022-11-15T13:23:05.920Z,61.60
2022-11-15T13:26:06.610Z,61.70
2022-11-15T13:28:44.778Z,61.70
2022-11-15T13:31:41.029Z,61.90
2022-11-15T13:37:21.098Z,61.90
2022-11-15T13:39:49.498Z,61.90
2022-11-15T13:42:18.955Z,62.10
2022-11-15T13:45:00.968Z,62.10
2022-11-15T13:47:30.021Z,62.40
2022-11-15T13:50:02.175Z,63.10
2022-11-15T13:52:38.224Z,62.60
2022-11-15T13:55:23.501Z,62.70
2022-11-15T13:57:54.812Z,62.70
2022-11-15T14:00:41.706Z,63.60
2022-11-15T14:03:17.459Z,62.80
2022-11-15T14:05:45.424Z,63.00
2022-11-15T14:08:23.776Z,63.00
2022-11-15T14:11:20.302Z,63.20
2022-11-15T14:14:08.631Z,63.40
2022-11-15T14:16:39.948Z,63.30
2022-11-15T14:19:10.964Z,63.30
2022-11-15T14:21:38.220Z,63.50
2022-11-15T14:24:17.451Z,63.30
2022-11-15T14:26:44.470Z,63.40
2022-11-15T14:29:31.186Z,63.20
2022-11-15T14:32:20.708Z,63.20
2022-11-15T14:34:49.668Z,63.10
2022-11-15T14:37:29.170Z,62.90
2022-11-15T14:39:56.616Z,62.90
2022-11-15T14:42:24.412Z,62.90
2022-11-15T14:44:51.676Z,62.70
2022-11-15T14:47:19.272Z,62.60
2022-11-15T14:49:46.337Z,62.40
2022-11-15T14:52:32.602Z,62.40
2022-11-15T14:55:03.359Z,62.30
2022-11-15T14:57:31.863Z,62.30
2022-11-15T14:59:58.656Z,62.30
2022-11-15T15:02:39.191Z,62.00
2022-11-15T15:05:22.769Z,61.80
2022-11-15T15:07:50.101Z,61.60
2022-11-15T15:10:38.939Z,61.40
2022-11-15T15:13:06.170Z,61.30
2022-11-15T15:15:35.541Z,61.40
2022-11-15T15:18:03.544Z,61.50
2022-11-15T15:20:30.594Z,61.60
2022-11-15T15:22:57.419Z,61.60
2022-11-15T15:25:29.120Z,61.60
2022-11-15T15:27:56.567Z,61.70
2022-11-15T15:30:24.346Z,61.70
2022-11-15T15:32:51.759Z,61.80
2022-11-15T15:35:19.676Z,61.90
2022-11-15T15:37:48.498Z,62.00
2022-11-15T15:40:21.112Z,62.00
2022-11-15T15:42:48.810Z,63.20
2022-11-15T15:45:16.520Z,62.10
2022-11-15T15:47:43.876Z,62.20
2022-11-15T15:50:22.630Z,62.00
2022-11-15T15:52:51.121Z,61.90
2022-11-15T15:55:18.188Z,61.70
2022-11-15T15:57:45.103Z,61.80
2022-11-15T16:00:12.767Z,61.80
2022-11-15T16:02:40.799Z,61.80
2022-11-15T16:05:08.616Z,61.70
2022-11-15T16:07:35.831Z,61.30
2022-11-15T16:10:12.897Z,61.30
2022-11-15T16:12:39.716Z,61.10
2022-11-15T16:15:07.053Z,61.10
2022-11-15T16:17:38.262Z,61.20
2022-11-15T16:20:06.153Z,61.20
2022-11-15T16:22:33.085Z,61.10
2022-11-15T16:24:59.894Z,61.10
2022-11-15T16:27:26.826Z,61.00
2022-11-15T16:29:53.673Z,61.10
2022-11-15T16:32:20.604Z,61.40
2022-11-15T16:34:49.237Z,61.30
2022-11-15T16:37:34.509Z,61.40
2022-11-15T16:40:01.621Z,61.60
2022-11-15T16:42:28.574Z,62.00
2022-11-15T16:44:55.385Z,62.10
2022-11-15T16:47:22.876Z,62.40
2022-11-15T16:49:49.669Z,62.90
2022-11-15T16:52:21.187Z,63.50
2022-11-15T16:54:48.493Z,63.70
2022-11-15T16:57:16.694Z,64.20
2022-11-15T16:59:43.551Z,64.90
2022-11-15T17:02:13.968Z,65.40
2022-11-15T17:04:40.948Z,65.90
2022-11-15T17:07:09.123Z,66.20
2022-11-15T17:09:35.974Z,66.60
2022-11-15T17:12:02.822Z,67.10
2022-11-15T17:14:29.709Z,67.50
2022-11-15T17:16:56.535Z,67.80
2022-11-15T17:19:23.420Z,68.20
2022-11-15T17:21:50.337Z,68.70
2022-11-15T17:24:17.527Z,68.90
2022-11-15T17:26:44.594Z,69.00
2022-11-15T17:29:11.502Z,70.30
2022-11-15T17:31:38.880Z,69.90
2022-11-15T17:34:07.004Z,70.00
2022-11-15T17:36:34.738Z,70.30
2022-11-15T17:39:01.904Z,70.70
2022-11-15T17:41:29.281Z,71.00
2022-11-15T17:43:58.224Z,71.40
2022-11-15T17:46:25.636Z,71.50
2022-11-15T17:48:52.438Z,71.70
2022-11-15T17:51:19.469Z,71.80
2022-11-15T17:53:48.495Z,72.20
2022-11-15T17:56:17.540Z,72.60
2022-11-15T17:58:52.310Z,72.70
2022-11-15T18:01:28.237Z,72.90
2022-11-15T18:03:56.322Z,73.10
2022-11-15T18:06:24.841Z,73.30
2022-11-15T18:08:55.874Z,73.50
2022-11-15T18:11:25.818Z,73.70
2022-11-15T18:13:58.420Z,73.90
2022-11-15T18:16:28.602Z,73.90
2022-11-15T18:18:55.745Z,74.10
2022-11-15T18:21:25.812Z,74.20
2022-11-15T18:23:58.560Z,74.30
2022-11-15T18:26:28.228Z,74.40
2022-11-15T18:28:57.705Z,74.40
2022-11-15T18:31:27.176Z,74.50
2022-11-15T18:33:54.889Z,74.60
2022-11-15T18:36:27.117Z,74.70
2022-11-15T18:38:55.733Z,74.80
2022-11-15T18:41:25.363Z,75.00
2022-11-15T18:43:52.680Z,74.90
2022-11-15T18:46:21.647Z,75.10
2022-11-15T18:48:52.713Z,75.20
2022-11-15T18:51:27.411Z,75.20
2022-11-15T18:53:56.275Z,75.20
2022-11-15T18:56:25.073Z,75.20
2022-11-15T18:58:56.968Z,75.40
2022-11-15T19:01:26.889Z,75.40
2022-11-15T19:03:55.944Z,75.50
2022-11-15T19:06:28.983Z,75.60
2022-11-15T19:08:58.228Z,75.60
2022-11-15T19:11:28.708Z,75.60
2022-11-15T19:14:03.258Z,75.60
2022-11-15T19:16:33.255Z,75.70
2022-11-15T19:19:03.118Z,75.70
2022-11-15T19:21:33.808Z,75.70
2022-11-15T19:24:01.524Z,75.80
2022-11-15T19:26:29.600Z,75.80
2022-11-15T19:28:58.597Z,75.90
2022-11-15T19:31:26.675Z,76.00
2022-11-15T19:33:54.921Z,76.00
2022-11-15T19:36:26.781Z,76.20
2022-11-15T19:38:54.630Z,76.20
2022-11-15T19:41:22.986Z,76.30
2022-11-15T19:43:52.982Z,76.40
2022-11-15T19:46:21.928Z,77.40
2022-11-15T19:48:49.526Z,76.60
2022-11-15T19:51:19.520Z,76.70
2022-11-15T19:53:46.431Z,76.80
2022-11-15T19:56:16.317Z,76.90
2022-11-15T19:58:43.557Z,76.90
2022-11-15T20:01:20.359Z,77.10
2022-11-15T20:03:48.789Z,77.20
2022-11-15T20:06:18.632Z,77.10
2022-11-15T20:08:46.981Z,77.20
2022-11-15T20:11:15.132Z,77.30
2022-11-15T20:13:43.025Z,77.30
2022-11-15T20:16:14.744Z,77.40
2022-11-15T20:18:41.720Z,77.50
2022-11-15T20:21:09.508Z,77.50
2022-11-15T20:23:36.565Z,77.40
2022-11-15T20:26:03.555Z,77.50
2022-11-15T20:28:30.816Z,77.50
2022-11-15T20:31:00.160Z,77.50
2022-11-15T20:33:27.574Z,77.50
2022-11-15T20:35:54.678Z,77.60
2022-11-15T20:38:22.345Z,77.60
2022-11-15T20:40:50.692Z,77.60
2022-11-15T20:43:19.662Z,77.60
2022-11-15T20:45:48.804Z,77.60
2022-11-15T20:48:16.348Z,77.60
2022-11-15T20:50:45.114Z,77.70
2022-11-15T20:53:13.861Z,77.70
2022-11-15T20:55:42.451Z,77.70
2022-11-15T20:58:10.521Z,77.70
2022-11-15T21:00:38.285Z,77.80
2022-11-15T21:03:06.922Z,77.80
2022-11-15T21:05:41.895Z,77.80
2022-11-15T21:08:10.332Z,78.70
2022-11-15T21:10:56.220Z,77.80
2022-11-15T21:13:23.125Z,77.90
2022-11-15T21:15:50.167Z,77.90
2022-11-15T21:18:17.330Z,78.00
2022-11-15T21:20:44.153Z,78.00
2022-11-15T21:23:12.262Z,77.90
2022-11-15T21:25:39.152Z,78.00
2022-11-15T21:28:06.060Z,78.10
2022-11-15T21:30:32.948Z,78.00
2022-11-15T21:32:59.797Z,77.80
2022-11-15T21:35:26.696Z,77.80
2022-11-15T21:37:56.813Z,77.90
2022-11-15T21:40:24.926Z,77.80
2022-11-15T21:42:51.832Z,77.70
2022-11-15T21:45:18.768Z,77.70
2022-11-15T21:47:46.621Z,77.60
2022-11-15T21:50:14.248Z,77.60
2022-11-15T21:52:41.275Z,77.50
2022-11-15T21:55:08.935Z,77.60
2022-11-15T21:57:35.790Z,77.70
2022-11-15T22:00:21.496Z,77.80
2022-11-15T22:02:48.382Z,77.80
2022-11-15T22:05:15.323Z,77.90
2022-11-15T22:07:42.215Z,77.80
2022-11-15T22:10:09.288Z,77.80
2022-11-15T22:12:36.498Z,77.70
2022-11-15T22:15:03.618Z,77.80
2022-11-15T22:17:50.410Z,77.90
2022-11-15T22:20:42.833Z,77.90
2022-11-15T22:23:05.262Z,77.90
2022-11-15T22:25:33.087Z,78.80
2022-11-15T22:27:59.933Z,78.00
2022-11-15T22:30:26.779Z,78.00
2022-11-15T22:32:53.619Z,78.10
2022-11-15T22:35:20.497Z,78.00
2022-11-15T22:37:47.313Z,78.00
2022-11-15T22:40:14.124Z,78.10
2022-11-15T22:42:40.963Z,78.20
2022-11-15T22:45:08.068Z,78.30
2022-11-15T22:47:34.873Z,78.30
2022-11-15T22:50:01.812Z,78.40
2022-11-15T22:52:28.671Z,78.30
2022-11-15T22:54:55.536Z,78.30
2022-11-15T22:57:22.425Z,78.30
2022-11-15T22:59:49.265Z,78.20
2022-11-15T23:02:16.104Z,78.20
2022-11-15T23:04:42.998Z,78.30
2022-11-15T23:07:09.887Z,78.30
2022-11-15T23:09:37.074Z,78.40
2022-11-15T23:12:22.615Z,78.40
2022-11-15T23:14:49.476Z,78.60
2022-11-15T23:17:16.288Z,78.60
2022-11-15T23:19:43.165Z,78.60
2022-11-15T23:22:28.855Z,78.60
2022-11-15T23:24:56.309Z,78.60
2022-11-15T23:27:23.803Z,78.60
2022-11-15T23:30:09.103Z,78.60
2022-11-15T23:32:54.802Z,78.60
2022-11-15T23:35:21.728Z,79.10
2022-11-15T23:37:48.545Z,78.80
2022-11-15T23:40:15.537Z,79.00
2022-11-15T23:42:42.411Z,79.00
2022-11-15T23:45:09.814Z,79.00
2022-11-15T23:47:36.716Z,79.00
2022-11-15T23:50:04.149Z,79.00
2022-11-15T23:52:31.018Z,79.10
2022-11-15T23:54:57.928Z,79.20
2022-11-15T23:57:24.793Z,79.30
2022-11-15T23:59:51.653Z,79.20
